Time;durP1;ratioP1;P1;durP2;ratioP2;P2;SDS_P1;SDS_P2;PMS_P1;PMS_P2;Temp;Humidity;BMP_temperature;BMP_pressure;BME280_temperature;BME280_humidity;BME280_pressure;Samples;Min_cycle;Max_cycle;Signal;HPM_P1;HPM_P2
2022/07/14 00:02:18;;;;;;;7.68;1.60;;;;;;;28.76;38.70;101796.75;5012263;28;20479;-64
2022/07/14 00:04:44;;;;;;;12.02;2.10;;;;;;;28.72;38.86;101806.56;5013396;28;20033;-63
2022/07/14 00:07:09;;;;;;;7.03;2.03;;;;;;;28.68;39.66;101809.97;5013374;28;20022;-64
2022/07/14 00:09:36;;;;;;;5.18;1.73;;;;;;;28.65;38.87;101802.13;4996111;28;20038;-63
2022/07/14 00:12:02;;;;;;;6.13;1.70;;;;;;;28.63;39.14;101804.28;5014907;28;20038;-65
2022/07/14 00:14:27;;;;;;;4.43;1.40;;;;;;;28.59;38.81;101801.09;5016040;28;20088;-65
2022/07/14 00:16:53;;;;;;;2.83;1.30;;;;;;;28.57;39.45;101796.88;5016127;28;20117;-64
2022/07/14 00:19:18;;;;;;;5.15;1.80;;;;;;;28.54;39.40;101789.88;5015942;28;20065;-63
2022/07/14 00:21:43;;;;;;;7.80;1.65;;;;;;;28.51;39.54;101783.97;5015992;28;20034;-63
2022/07/14 00:24:11;;;;;;;7.50;1.83;;;;;;;28.51;39.37;101772.94;5015920;28;20041;-63
2022/07/14 00:26:39;;;;;;;4.30;1.58;;;;;;;28.50;38.62;101771.28;5017016;28;20494;-63
2022/07/14 00:29:05;;;;;;;6.88;1.80;;;;;;;28.49;38.90;101775.09;5017133;28;20104;-64
2022/07/14 00:31:30;;;;;;;6.40;1.92;;;;;;;28.47;39.54;101775.31;5015860;28;20053;-65
2022/07/14 00:33:56;;;;;;;6.63;1.50;;;;;;;28.46;38.76;101786.56;5017060;28;20440;-64
2022/07/14 00:36:21;;;;;;;13.57;1.45;;;;;;;28.43;39.21;101778.72;5016783;28;20057;-64
2022/07/14 00:38:46;;;;;;;11.70;1.75;;;;;;;28.41;39.62;101789.16;5015831;28;20041;-64
2022/07/14 00:41:12;;;;;;;5.00;1.83;;;;;;;28.40;39.64;101793.81;5015836;28;20041;-64
2022/07/14 00:43:38;;;;;;;14.13;1.92;;;;;;;28.38;39.53;101795.09;4999470;28;20033;-65
2022/07/14 00:46:04;;;;;;;3.80;1.67;;;;;;;28.36;38.68;101794.50;4999215;28;20028;-65
2022/07/14 00:48:29;;;;;;;9.13;1.67;;;;;;;28.33;39.64;101781.16;5015435;28;20108;-64
2022/07/14 00:50:55;;;;;;;8.10;1.83;;;;;;;28.28;39.39;101774.38;5016642;28;20041;-65
2022/07/14 00:53:20;;;;;;;6.70;1.50;;;;;;;28.27;39.48;101767.19;5015339;28;20061;-65
2022/07/14 00:55:45;;;;;;;5.55;1.55;;;;;;;28.23;39.70;101765.94;5016522;28;20076;-64
2022/07/14 00:58:11;;;;;;;6.13;1.50;;;;;;;28.19;39.68;101753.69;5016576;28;20029;-64
2022/07/14 01:00:38;;;;;;;15.90;1.95;;;;;;;28.18;39.29;101768.53;4998884;28;20032;-64
2022/07/14 01:03:05;;;;;;;11.27;1.58;;;;;;;28.16;39.02;101775.31;4998810;28;20029;-63
2022/07/14 01:05:31;;;;;;;8.65;2.03;;;;;;;28.12;38.95;101796.09;5015136;28;20033;-64
2022/07/14 01:07:56;;;;;;;6.18;1.40;;;;;;;28.09;39.48;101802.91;5016568;28;20391;-64
2022/07/14 01:10:22;;;;;;;4.30;1.90;;;;;;;28.06;39.31;101800.59;5015206;28;20030;-65
2022/07/14 01:12:47;;;;;;;4.57;1.58;;;;;;;28.04;39.29;101816.50;5015097;28;20030;-64
2022/07/14 01:15:14;;;;;;;8.15;1.95;;;;;;;28.00;39.46;101830.94;5015072;28;20060;-63
2022/07/14 01:17:40;;;;;;;9.88;1.92;;;;;;;27.98;39.36;101833.88;5015034;28;20034;-64
2022/07/14 01:20:06;;;;;;;6.57;1.70;;;;;;;27.99;39.34;101824.56;5014979;28;20506;-63
2022/07/14 01:22:31;;;;;;;4.40;2.97;;;;;;;27.95;39.39;101812.28;5016274;28;20026;-64
2022/07/14 01:24:57;;;;;;;7.72;2.45;;;;;;;27.94;39.85;101812.50;4998466;28;20510;-63
2022/07/14 01:27:22;;;;;;;9.98;1.77;;;;;;;27.94;39.38;101804.25;5014766;28;20476;-63
2022/07/14 01:29:47;;;;;;;6.97;1.98;;;;;;;27.92;39.29;101807.19;5014924;28;20488;-64
2022/07/14 01:32:13;;;;;;;10.25;1.73;;;;;;;27.89;40.05;101796.63;5015962;28;20131;-64
2022/07/14 01:34:38;;;;;;;5.57;1.83;;;;;;;27.85;39.72;101789.88;5015725;28;20119;-64
2022/07/14 01:37:03;;;;;;;8.48;1.58;;;;;;;27.83;39.76;101792.00;5014637;28;20113;-65
2022/07/14 01:39:29;;;;;;;11.65;2.70;;;;;;;27.79;39.83;101773.38;5016211;28;20088;-64
2022/07/14 01:41:54;;;;;;;8.93;2.05;;;;;;;27.71;40.45;101755.19;5015735;28;20040;-63
2022/07/14 01:44:21;;;;;;;4.07;1.75;;;;;;;27.68;40.59;101758.38;5014468;28;20032;-63
2022/07/14 01:46:46;;;;;;;8.32;2.00;;;;;;;27.64;40.41;101762.63;5014476;28;20022;-63
2022/07/14 01:49:12;;;;;;;7.13;1.70;;;;;;;27.60;41.28;101759.50;5014394;28;20022;-63
2022/07/14 01:51:37;;;;;;;5.85;2.00;;;;;;;27.55;40.75;101758.44;5014276;28;20446;-64
2022/07/14 01:54:06;;;;;;;7.93;2.55;;;;;;;27.50;41.09;101769.28;5014228;28;20578;-63
2022/07/14 01:56:33;;;;;;;3.90;1.55;;;;;;;27.46;40.70;101757.84;5014200;28;20018;-63
2022/07/14 01:59:00;;;;;;;7.28;2.38;;;;;;;27.43;41.75;101762.94;5015500;28;20030;-64
2022/07/14 02:01:41;;;;;;;8.13;2.13;;;;;;;27.41;41.17;101759.56;5014248;28;20034;-63
2022/07/14 02:04:12;;;;;;;8.50;2.35;;;;;;;27.39;41.61;101772.63;5014204;28;20030;-63
2022/07/14 02:06:50;;;;;;;6.72;1.73;;;;;;;27.36;41.85;101768.41;5013998;28;20513;-64
2022/07/14 02:09:16;;;;;;;12.13;2.25;;;;;;;27.34;42.16;101770.53;5013950;28;20034;-63
2022/07/14 02:14:26;;;;;;;8.07;2.58;;;;;;;27.29;41.83;101769.50;5015178;28;20041;-63
2022/07/14 02:16:52;;;;;;;6.47;1.95;;;;;;;27.27;42.22;101772.50;5013930;28;20018;-64
2022/07/14 02:19:18;;;;;;;8.52;1.95;;;;;;;27.25;42.01;101768.25;5013900;28;20028;-63
2022/07/14 02:21:43;;;;;;;9.35;2.38;;;;;;;27.22;41.95;101761.25;4997410;28;20125;-63
2022/07/14 02:24:09;;;;;;;6.90;2.08;;;;;;;27.21;41.94;101769.75;5015026;28;20057;-63
2022/07/14 02:26:36;;;;;;;5.65;2.28;;;;;;;27.17;42.79;101770.16;5014899;28;20030;-63
2022/07/14 02:29:02;;;;;;;5.80;1.80;;;;;;;27.12;42.13;101761.72;5030285;28;20017;-64
2022/07/14 02:31:27;;;;;;;7.47;1.77;;;;;;;27.11;42.43;101768.28;5013744;28;20557;-63
2022/07/14 02:33:53;;;;;;;6.60;2.70;;;;;;;27.09;42.45;101759.41;5014413;28;20068;-64
2022/07/14 02:36:18;;;;;;;8.40;1.98;;;;;;;27.08;42.29;101738.44;5013510;28;20050;-63
2022/07/14 02:38:44;;;;;;;7.45;1.77;;;;;;;27.04;42.73;101741.84;5013833;28;20072;-63
2022/07/14 02:41:10;;;;;;;7.35;2.42;;;;;;;27.02;42.34;101760.47;5013503;28;20052;-63
2022/07/14 02:43:36;;;;;;;3.20;1.80;;;;;;;27.00;42.82;101746.06;5029780;28;20061;-63
2022/07/14 02:46:02;;;;;;;11.90;2.15;;;;;;;26.98;42.61;101731.69;5014474;28;20136;-63
2022/07/14 02:48:27;;;;;;;13.60;2.05;;;;;;;26.95;42.76;101734.88;5013242;28;20500;-63
2022/07/14 02:51:00;;;;;;;7.47;1.92;;;;;;;26.94;43.03;101747.78;5013261;28;20057;-63
2022/07/14 02:53:26;;;;;;;8.43;2.17;;;;;;;26.91;42.80;101748.19;5029747;28;20025;-63
2022/07/14 02:55:51;;;;;;;5.18;2.22;;;;;;;26.89;42.94;101755.81;4996820;28;20018;-63
2022/07/14 02:58:18;;;;;;;9.85;2.40;;;;;;;26.88;42.66;101770.66;5013157;28;20026;-63
2022/07/14 03:00:43;;;;;;;5.30;1.83;;;;;;;26.88;43.31;101754.16;5013076;28;20156;-63
2022/07/14 03:03:09;;;;;;;11.50;2.20;;;;;;;26.84;43.01;101736.38;5013066;28;20034;-63
2022/07/14 03:05:34;;;;;;;12.95;2.97;;;;;;;26.81;43.13;101727.69;5012970;28;20538;-63
2022/07/14 03:08:00;;;;;;;8.73;2.13;;;;;;;26.78;43.12;101731.72;5013053;28;20079;-63
2022/07/14 03:10:25;;;;;;;10.07;2.55;;;;;;;26.75;43.42;101731.28;5013042;28;20112;-63
2022/07/14 03:12:52;;;;;;;6.05;2.17;;;;;;;26.71;43.15;101714.38;4996522;28;20033;-63
2022/07/14 03:15:18;;;;;;;13.90;2.15;;;;;;;26.71;43.25;101725.38;4996747;28;20018;-63
2022/07/14 03:17:43;;;;;;;6.38;2.58;;;;;;;26.67;43.04;101718.59;5012741;28;20364;-63
2022/07/14 03:20:09;;;;;;;7.40;1.70;;;;;;;26.67;42.88;101718.59;5012697;28;20618;-63
2022/07/14 03:22:34;;;;;;;10.35;3.20;;;;;;;26.65;43.26;101731.72;5012846;28;20033;-63
2022/07/14 03:25:00;;;;;;;10.02;3.17;;;;;;;26.61;43.59;101746.94;4996341;28;20038;-63
2022/07/14 03:27:25;;;;;;;7.20;2.20;;;;;;;26.58;43.48;101748.22;5012795;28;20034;-63
2022/07/14 03:29:51;;;;;;;5.57;2.08;;;;;;;26.56;43.08;101750.31;5012780;28;20037;-63
2022/07/14 03:32:16;;;;;;;6.78;2.10;;;;;;;26.52;43.49;101742.72;4996577;28;20564;-63
2022/07/14 03:34:42;;;;;;;8.30;2.67;;;;;;;26.51;43.10;101735.53;4996138;28;20062;-63
2022/07/14 03:37:07;;;;;;;11.23;2.40;;;;;;;26.47;43.45;101732.34;5012498;28;20455;-64
2022/07/14 03:39:32;;;;;;;6.78;2.47;;;;;;;26.42;43.22;101729.41;4996302;28;20121;-63
2022/07/14 03:41:58;;;;;;;10.05;2.00;;;;;;;26.40;43.50;101725.16;5012433;28;20030;-63
2022/07/14 03:44:24;;;;;;;10.25;2.55;;;;;;;26.37;43.35;101729.19;5013598;28;20080;-63
2022/07/14 03:46:49;;;;;;;9.18;2.13;;;;;;;26.33;43.05;101727.06;5012955;28;20049;-63
2022/07/14 03:49:15;;;;;;;5.30;2.28;;;;;;;26.30;43.32;101744.81;5012319;28;20065;-63
2022/07/14 03:51:41;;;;;;;10.60;2.30;;;;;;;26.28;43.33;101762.56;5013645;28;20060;-63
2022/07/14 03:54:07;;;;;;;5.40;1.55;;;;;;;26.27;43.45;101758.16;5013614;28;20080;-63
2022/07/14 03:56:32;;;;;;;5.35;1.85;;;;;;;26.24;42.90;101758.56;5013661;28;20030;-63
2022/07/14 03:58:57;;;;;;;10.20;3.33;;;;;;;26.23;43.55;101759.59;5012374;28;20128;-63
2022/07/14 04:01:23;;;;;;;8.00;2.42;;;;;;;26.20;43.38;101754.53;5013576;28;20025;-63
2022/07/14 04:03:48;;;;;;;13.07;2.70;;;;;;;26.17;43.74;101742.06;4995895;28;20054;-63
2022/07/14 04:06:14;;;;;;;8.50;2.55;;;;;;;26.17;43.20;101741.19;5012270;28;20030;-62
2022/07/14 04:08:40;;;;;;;5.43;2.92;;;;;;;26.18;43.01;101734.66;4995828;28;20045;-63
2022/07/14 04:11:05;;;;;;;10.68;2.65;;;;;;;26.19;43.18;101739.09;5012289;28;20025;-63
2022/07/14 04:13:32;;;;;;;6.85;2.63;;;;;;;26.19;43.33;101741.81;4979683;28;20498;-63
2022/07/14 04:15:57;;;;;;;14.23;3.33;;;;;;;26.19;43.01;101747.31;5012192;28;20026;-63
2022/07/14 04:18:23;;;;;;;10.90;2.72;;;;;;;26.18;43.65;101759.38;5013461;28;20030;-63
2022/07/14 04:20:49;;;;;;;10.63;2.65;;;;;;;26.15;43.13;101746.06;5012181;28;20476;-63
2022/07/14 04:23:15;;;;;;;11.52;2.45;;;;;;;26.17;43.11;101749.44;5013377;28;20377;-63
2022/07/14 04:25:40;;;;;;;13.00;2.60;;;;;;;26.17;43.43;101743.94;5011932;28;20036;-63
2022/07/14 04:28:05;;;;;;;8.75;2.10;;;;;;;26.15;43.12;101735.06;5012077;28;20026;-63
2022/07/14 04:30:31;;;;;;;7.18;3.20;;;;;;;26.15;43.22;101743.31;5012109;28;20049;-63
2022/07/14 04:32:56;;;;;;;11.70;2.30;;;;;;;26.18;43.26;101740.16;5013225;28;20104;-63
2022/07/14 04:35:22;;;;;;;5.75;2.05;;;;;;;26.19;43.07;101725.34;5013112;28;20046;-63
2022/07/14 04:37:47;;;;;;;11.73;2.83;;;;;;;26.27;43.16;101725.16;5013067;28;20034;-63
2022/07/14 04:40:13;;;;;;;13.20;2.88;;;;;;;26.32;42.87;101733.63;5011905;28;20076;-63
2022/07/14 04:42:38;;;;;;;7.93;2.92;;;;;;;26.34;43.18;101732.34;5013221;28;20030;-63
2022/07/14 04:45:04;;;;;;;8.75;3.05;;;;;;;26.40;43.21;101741.66;5012987;28;20030;-63
2022/07/14 04:47:29;;;;;;;10.10;2.63;;;;;;;26.45;42.77;101741.88;5011895;28;20061;-63
2022/07/14 04:52:49;;;;;;;10.88;3.00;;;;;;;26.56;42.44;101749.47;5013074;28;20053;-63
2022/07/14 04:55:15;;;;;;;7.63;2.90;;;;;;;26.61;42.77;101746.94;5011841;28;20029;-63
2022/07/14 04:57:41;;;;;;;10.43;3.47;;;;;;;26.59;43.15;101746.31;5013871;28;20104;-63
2022/07/14 05:00:07;;;;;;;15.60;4.00;;;;;;;26.58;43.27;101725.38;5015350;28;20121;-63
2022/07/14 05:02:33;;;;;;;8.30;2.58;;;;;;;26.57;43.07;101735.53;5016044;28;20040;-63
2022/07/14 05:04:59;;;;;;;9.63;2.97;;;;;;;26.55;42.96;101731.28;5015619;28;20030;-63
2022/07/14 05:07:24;;;;;;;12.25;2.63;;;;;;;26.53;42.96;101733.41;5015321;28;20084;-64
2022/07/14 05:09:50;;;;;;;15.30;3.28;;;;;;;26.52;42.76;101742.72;5015310;28;20026;-64
2022/07/14 05:12:17;;;;;;;10.23;4.25;;;;;;;26.52;43.02;101748.22;5031563;28;20030;-64
2022/07/14 05:14:43;;;;;;;7.63;2.65;;;;;;;26.52;42.56;101751.78;5016407;28;20451;-63
2022/07/14 05:17:08;;;;;;;9.13;2.85;;;;;;;26.53;43.02;101748.00;5014886;28;20487;-64
2022/07/14 05:19:33;;;;;;;7.72;3.78;;;;;;;26.54;43.00;101757.09;5015398;28;20101;-64
2022/07/14 05:21:59;;;;;;;11.95;3.42;;;;;;;26.53;42.65;101758.16;5016222;28;20057;-63
2022/07/14 05:24:24;;;;;;;11.95;2.30;;;;;;;26.51;43.10;101752.03;5014900;28;20026;-64
2022/07/14 05:26:50;;;;;;;8.38;2.97;;;;;;;26.56;42.54;101758.56;5014852;28;20112;-64
2022/07/14 05:29:15;;;;;;;9.85;4.07;;;;;;;26.61;42.54;101758.78;5016120;28;20057;-63
2022/07/14 05:31:40;;;;;;;12.63;2.80;;;;;;;26.69;43.10;101760.47;5014831;28;20030;-64
2022/07/14 05:34:06;;;;;;;9.77;2.72;;;;;;;26.79;42.72;101758.19;5016151;28;20025;-64
2022/07/14 05:36:31;;;;;;;17.60;4.50;;;;;;;26.81;42.69;101764.31;5014737;28;20393;-64
2022/07/14 05:38:57;;;;;;;9.45;3.35;;;;;;;26.81;42.40;101758.81;4998381;28;20121;-64
2022/07/14 05:41:22;;;;;;;8.85;2.97;;;;;;;26.82;42.86;101749.50;5014670;28;20029;-64
2022/07/14 05:43:48;;;;;;;10.88;2.67;;;;;;;26.85;42.28;101748.22;5014637;28;20498;-64
2022/07/14 05:46:14;;;;;;;27.08;4.55;;;;;;;26.86;42.45;101753.50;5030952;28;20453;-63
2022/07/14 05:48:40;;;;;;;6.43;2.70;;;;;;;26.88;42.50;101751.41;5015736;28;20028;-64
2022/07/14 05:51:11;;;;;;;10.98;2.90;;;;;;;26.92;41.98;101763.66;5014680;28;20407;-63
2022/07/14 05:53:37;;;;;;;11.18;2.88;;;;;;;26.95;42.01;101768.72;5014451;28;20076;-64
2022/07/14 05:56:04;;;;;;;10.20;2.72;;;;;;;26.99;42.25;101759.00;5014424;28;20022;-64
2022/07/14 05:58:29;;;;;;;10.65;2.75;;;;;;;27.05;42.02;101755.38;5014344;28;20091;-64
2022/07/14 06:00:55;;;;;;;13.65;3.63;;;;;;;27.16;42.07;101751.97;5030729;28;20025;-64
2022/07/14 06:03:20;;;;;;;9.10;2.80;;;;;;;27.44;41.79;101764.63;5014236;28;20026;-64
2022/07/14 06:05:46;;;;;;;10.68;2.90;;;;;;;27.57;41.86;101743.41;5015213;28;20030;-64
2022/07/14 06:08:11;;;;;;;6.32;2.30;;;;;;;27.72;41.82;101746.69;4997281;28;20034;-63
2022/07/14 06:10:37;;;;;;;18.63;3.47;;;;;;;27.98;41.51;101750.38;5013791;28;20395;-64
2022/07/14 06:13:03;;;;;;;7.63;3.10;;;;;;;27.98;41.23;101756.75;5014353;28;20022;-63
2022/07/14 06:15:29;;;;;;;13.60;2.95;;;;;;;27.97;41.14;101754.22;5014147;28;20045;-63
2022/07/14 06:17:54;;;;;;;13.93;2.78;;;;;;;27.99;40.77;101769.47;4997370;28;20018;-64
2022/07/14 06:20:19;;;;;;;13.98;4.22;;;;;;;27.97;41.54;101766.09;5013706;28;20030;-65
2022/07/14 06:22:45;;;;;;;11.88;3.20;;;;;;;28.02;41.58;101769.03;5014871;28;20037;-64
2022/07/14 06:25:10;;;;;;;13.45;3.00;;;;;;;28.07;41.24;101763.72;5013530;28;20117;-65
2022/07/14 06:27:36;;;;;;;11.27;3.08;;;;;;;28.14;40.76;101766.44;5013515;28;20026;-64
2022/07/14 06:30:06;;;;;;;11.25;3.05;;;;;;;28.32;40.45;101766.50;4997256;28;20116;-64
2022/07/14 06:32:32;;;;;;;10.50;3.10;;;;;;;28.35;40.27;101759.72;5014991;28;20113;-65
2022/07/14 06:34:57;;;;;;;10.60;3.25;;;;;;;28.30;40.47;101755.72;5013357;28;20573;-64
2022/07/14 06:37:22;;;;;;;13.60;3.20;;;;;;;28.29;40.80;101759.53;5014698;28;20029;-65
2022/07/14 06:39:48;;;;;;;14.15;3.20;;;;;;;28.36;40.89;101764.16;5013578;28;20065;-64
2022/07/14 06:42:13;;;;;;;11.45;3.22;;;;;;;28.48;40.35;101762.34;5014628;28;20034;-64
2022/07/14 06:44:39;;;;;;;15.55;3.80;;;;;;;28.82;40.07;101750.84;5013441;28;20446;-64
2022/07/14 06:47:05;;;;;;;11.45;3.30;;;;;;;28.93;40.64;101744.59;4996979;28;20037;-62
2022/07/14 06:49:30;;;;;;;8.25;2.70;;;;;;;29.15;40.19;101736.72;5013232;28;20026;-65
2022/07/14 06:51:56;;;;;;;9.88;2.85;;;;;;;29.51;40.00;101744.19;5013143;28;20037;-65
2022/07/14 06:54:21;;;;;;;9.45;3.17;;;;;;;29.53;39.31;101750.31;5014431;28;20032;-65
2022/07/14 06:56:46;;;;;;;16.48;3.45;;;;;;;29.50;39.37;101748.88;5013222;28;20025;-64
2022/07/14 06:59:12;;;;;;;13.32;3.63;;;;;;;29.69;40.03;101745.00;5013087;28;20038;-66
2022/07/14 07:01:37;;;;;;;10.00;2.92;;;;;;;29.77;39.43;101761.25;5013124;28;20064;-65
2022/07/14 07:04:03;;;;;;;8.40;2.67;;;;;;;29.94;39.25;101758.72;5013259;28;20037;-64
2022/07/14 07:06:44;;;;;;;8.75;2.40;;;;;;;30.18;38.72;101745.84;5013052;28;20124;-65
2022/07/14 07:09:19;;;;;;;11.10;2.97;;;;;;;30.17;38.79;101731.16;5013100;28;20034;-65
2022/07/14 07:11:46;;;;;;;9.20;2.95;;;;;;;30.13;38.85;101741.00;5012902;28;20112;-64
2022/07/14 07:14:12;;;;;;;13.00;3.35;;;;;;;30.13;38.56;101735.47;5012894;28;20057;-65
2022/07/14 07:16:38;;;;;;;13.43;3.75;;;;;;;30.14;38.71;101731.63;5029350;28;20088;-63
2022/07/14 07:19:03;;;;;;;13.10;3.42;;;;;;;30.08;38.43;101726.19;5012865;28;20484;-63
2022/07/14 07:21:29;;;;;;;16.27;2.85;;;;;;;30.17;38.01;101719.25;5012565;28;20026;-64
2022/07/14 07:23:55;;;;;;;5.45;1.85;;;;;;;30.20;38.10;101719.63;5029205;28;20022;-63
2022/07/14 07:26:24;;;;;;;10.13;2.20;;;;;;;30.16;38.09;101726.72;4996460;28;20484;-63
2022/07/14 07:28:53;;;;;;;13.93;3.47;;;;;;;30.23;37.91;101751.50;4981001;28;20030;-66
2022/07/14 07:31:18;;;;;;;9.32;2.25;;;;;;;30.53;37.81;101747.63;5012578;28;20069;-65
2022/07/14 07:33:45;;;;;;;8.07;2.42;;;;;;;30.79;37.73;101746.34;5029029;28;20049;-65
2022/07/14 07:36:11;;;;;;;8.75;2.38;;;;;;;31.09;37.40;101751.75;4996066;28;20157;-64
2022/07/14 07:38:36;;;;;;;9.32;3.17;;;;;;;31.34;36.97;101744.00;5013825;28;20033;-64
2022/07/14 07:41:02;;;;;;;8.13;1.80;;;;;;;31.68;36.73;101740.34;5012292;28;20034;-64
2022/07/14 07:43:27;;;;;;;8.13;2.20;;;;;;;31.65;36.66;101751.91;5012360;28;20084;-64
2022/07/14 07:45:53;;;;;;;9.68;1.75;;;;;;;31.64;36.60;101744.69;5013485;28;20033;-65
2022/07/14 07:48:19;;;;;;;7.85;1.98;;;;;;;31.56;36.32;101738.69;5012208;28;20040;-64
2022/07/14 07:50:44;;;;;;;9.35;1.55;;;;;;;31.57;36.47;101746.78;5013549;28;20025;-65
2022/07/14 07:53:11;;;;;;;10.02;2.25;;;;;;;31.77;35.98;101742.72;5012169;28;20030;-64
2022/07/14 07:55:37;;;;;;;8.85;2.78;;;;;;;32.19;35.00;101741.34;5012476;28;20030;-64
2022/07/14 07:58:03;;;;;;;10.07;2.08;;;;;;;32.58;35.56;101732.03;5013419;28;20034;-64
2022/07/14 08:00:28;;;;;;;6.80;1.45;;;;;;;32.93;34.94;101725.38;5012134;28;20037;-64
2022/07/14 08:02:54;;;;;;;4.53;1.63;;;;;;;33.10;35.10;101726.22;5012204;28;20030;-64
2022/07/14 08:05:25;;;;;;;6.13;1.90;;;;;;;32.92;34.66;101726.47;5013330;28;20041;-65
2022/07/14 08:07:51;;;;;;;8.32;2.30;;;;;;;32.73;34.37;101721.19;5013343;28;20026;-64
2022/07/14 08:10:17;;;;;;;4.78;1.95;;;;;;;33.05;33.89;101706.66;5012062;28;20084;-64
2022/07/14 08:12:43;;;;;;;5.13;1.63;;;;;;;33.33;33.20;101709.31;4995733;28;20439;-65
2022/07/14 08:15:09;;;;;;;7.65;2.95;;;;;;;33.62;33.39;101696.91;5012014;28;20021;-65
2022/07/14 08:17:35;;;;;;;9.10;1.95;;;;;;;33.64;33.23;101697.47;5012066;28;20506;-65
2022/07/14 08:20:01;;;;;;;9.00;1.92;;;;;;;33.44;33.69;101688.03;5013212;28;20101;-65
2022/07/14 08:22:27;;;;;;;5.35;1.40;;;;;;;33.31;33.77;101704.00;5012073;28;20120;-66
2022/07/14 08:24:54;;;;;;;4.50;1.52;;;;;;;33.34;32.86;101703.47;5011866;28;20433;-66
2022/07/14 08:27:20;;;;;;;4.18;1.38;;;;;;;33.69;32.36;101703.09;5011952;28;20026;-65
2022/07/14 08:29:45;;;;;;;9.38;1.60;;;;;;;33.90;31.84;101685.53;5011889;28;20565;-65
2022/07/14 08:32:11;;;;;;;4.13;1.15;;;;;;;33.98;31.90;101676.69;5013120;28;20030;-65
2022/07/14 08:34:37;;;;;;;5.35;1.58;;;;;;;34.02;31.18;101679.81;5015674;28;20065;-65
2022/07/14 08:37:05;;;;;;;8.45;1.30;;;;;;;34.02;31.49;101678.94;5016947;28;20470;-65
2022/07/14 08:39:30;;;;;;;9.45;1.95;;;;;;;34.03;32.15;101680.66;5015657;28;20446;-64
2022/07/14 08:41:59;;;;;;;8.32;1.65;;;;;;;33.93;32.16;101681.38;5015680;28;20058;-65
2022/07/14 08:44:25;;;;;;;7.07;1.50;;;;;;;33.86;31.47;101677.97;5016805;28;20113;-65
2022/07/14 08:46:51;;;;;;;6.18;1.20;;;;;;;33.86;31.92;101687.16;5015515;28;20030;-64
2022/07/14 08:49:16;;;;;;;4.80;1.92;;;;;;;33.94;31.37;101671.94;5016713;28;20041;-64
2022/07/14 08:51:42;;;;;;;8.93;2.00;;;;;;;34.07;30.91;101681.78;4999233;28;20163;-65
2022/07/14 08:54:11;;;;;;;6.88;1.95;;;;;;;34.21;31.33;101685.84;5015332;28;20087;-65
2022/07/14 08:56:38;;;;;;;5.57;1.20;;;;;;;34.65;29.97;101676.19;5015357;28;20080;-64
2022/07/14 08:59:04;;;;;;;7.35;1.20;;;;;;;34.87;29.79;101671.31;5015294;28;20085;-65
2022/07/14 09:01:30;;;;;;;11.35;1.90;;;;;;;35.08;29.72;101662.00;5031704;28;20483;-64
2022/07/14 09:03:55;;;;;;;7.57;1.90;;;;;;;35.24;29.59;101665.66;5031720;28;20064;-64
2022/07/14 09:06:46;;;;;;;9.20;2.55;;;;;;;35.48;29.18;101671.63;5015143;28;20480;-65
2022/07/14 09:09:17;;;;;;;4.90;1.77;;;;;;;35.49;28.91;101664.91;5015039;28;20037;-65
2022/07/14 09:11:59;;;;;;;2.85;1.30;;;;;;;35.54;29.56;101665.75;5016314;28;20100;-65
2022/07/14 09:14:26;;;;;;;5.85;1.50;;;;;;;35.37;29.02;101675.50;5016274;28;20033;-64
2022/07/14 09:16:52;;;;;;;4.68;1.00;;;;;;;35.36;29.04;101668.22;5014879;28;20048;-64
2022/07/14 09:19:19;;;;;;;5.50;1.45;;;;;;;35.65;28.93;101675.06;5014897;28;20049;-65
2022/07/14 09:21:46;;;;;;;3.58;0.90;;;;;;;35.99;28.30;101673.41;5015030;28;20025;-65
2022/07/14 09:24:14;;;;;;;6.57;1.90;;;;;;;36.26;28.75;101686.31;5014836;28;20036;-65
2022/07/14 09:26:47;;;;;;;6.18;1.30;;;;;;;36.63;27.91;101684.09;5014630;28;20034;-65
2022/07/14 09:29:20;;;;;;;6.65;1.30;;;;;;;36.62;28.10;101683.25;5016196;28;20060;-64
2022/07/14 09:31:47;;;;;;;12.80;1.85;;;;;;;36.58;28.20;101689.66;5014851;28;20057;-65
2022/07/14 09:34:31;;;;;;;5.05;1.27;;;;;;;36.56;28.16;101683.53;4998334;28;20076;-65
2022/07/14 09:37:14;;;;;;;5.53;1.40;;;;;;;36.44;28.46;101677.34;5015871;28;20049;-65
2022/07/14 09:39:56;;;;;;;8.20;1.30;;;;;;;36.28;27.93;101672.91;5016232;28;20357;-65
2022/07/14 09:42:45;;;;;;;6.95;1.60;;;;;;;36.25;27.97;101679.03;5031128;28;20156;-65
2022/07/14 09:45:11;;;;;;;4.05;1.23;;;;;;;36.26;27.35;101689.09;5029932;28;20034;-65
2022/07/14 09:47:58;;;;;;;5.90;1.33;;;;;;;36.33;27.32;101684.06;5015863;28;20083;-65
2022/07/14 09:51:03;;;;;;;6.05;0.82;;;;;;;36.47;26.76;101685.16;5015473;28;20034;-65
2022/07/14 09:53:33;;;;;;;5.45;2.05;;;;;;;36.91;26.57;101677.84;5014390;28;20022;-65
2022/07/14 09:56:06;;;;;;;2.20;0.63;;;;;;;37.22;26.35;101679.44;5014189;28;20480;-65
2022/07/14 09:58:48;;;;;;;6.18;1.45;;;;;;;37.48;25.34;101676.56;5014225;28;20439;-64
2022/07/14 10:01:15;;;;;;;3.75;0.95;;;;;;;37.73;25.08;101674.44;5014085;28;20028;-64
2022/07/14 10:03:43;;;;;;;4.60;0.95;;;;;;;38.03;25.08;101679.03;5014111;28;20022;-64
2022/07/14 10:06:09;;;;;;;7.35;1.17;;;;;;;38.07;24.84;101682.91;5013996;28;20129;-64
2022/07/14 10:08:36;;;;;;;3.53;1.05;;;;;;;38.39;24.05;101665.56;5013964;28;20021;-65
2022/07/14 10:11:05;;;;;;;32.03;29.85;;;;;;;38.95;24.42;101671.44;5014027;28;20057;-64
2022/07/14 10:13:30;;;;;;;36.97;35.13;;;;;;;39.65;23.65;101674.50;5015118;28;20099;-64
2022/07/14 10:15:56;;;;;;;2.15;1.30;;;;;;;40.46;22.75;101671.25;5015014;28;20030;-65
2022/07/14 10:18:24;;;;;;;2.55;1.13;;;;;;;41.55;21.84;101662.88;5013811;28;20034;-64
2022/07/14 10:20:52;;;;;;;5.78;1.80;;;;;;;42.20;21.05;101668.94;5013710;28;20041;-64
2022/07/14 10:23:18;;;;;;;1.73;0.80;;;;;;;42.10;21.24;101670.00;5013774;28;20030;-64
2022/07/14 10:25:49;;;;;;;3.15;1.20;;;;;;;41.68;21.27;101665.66;5013741;28;20484;-64
2022/07/14 10:28:15;;;;;;;2.95;1.20;;;;;;;41.47;21.40;101670.09;5013563;28;20120;-64
2022/07/14 10:30:59;;;;;;;5.00;1.10;;;;;;;41.31;21.54;101663.13;5013718;28;20030;-64
2022/07/14 10:33:57;;;;;;;2.75;1.65;;;;;;;41.27;21.20;101678.94;5014751;28;20487;-64
2022/07/14 10:36:39;;;;;;;3.67;1.30;;;;;;;41.30;21.04;101675.50;5013454;28;20115;-64
2022/07/14 10:39:35;;;;;;;10.27;2.47;;;;;;;41.36;21.43;101667.81;5013352;28;20084;-65
2022/07/14 10:42:11;;;;;;;4.72;1.20;;;;;;;41.49;21.30;101673.41;5013330;28;20022;-64
2022/07/14 10:44:40;;;;;;;7.80;3.35;;;;;;;41.60;21.16;101660.78;5013362;28;20021;-64
2022/07/14 10:47:10;;;;;;;6.63;1.80;;;;;;;41.67;20.88;101666.81;5014537;28;20030;-64
2022/07/14 10:50:00;;;;;;;3.05;1.85;;;;;;;41.79;20.51;101667.13;5013200;28;20021;-64
2022/07/14 10:52:27;;;;;;;1.65;1.40;;;;;;;41.92;20.37;101664.56;5013499;28;20038;-64
2022/07/14 10:55:22;;;;;;;7.93;1.60;;;;;;;42.14;20.33;101670.19;5012866;28;20030;-63
2022/07/14 10:57:59;;;;;;;4.75;2.47;;;;;;;42.33;20.23;101668.03;5013146;28;20156;-65
2022/07/14 11:00:47;;;;;;;4.32;1.88;;;;;;;42.49;20.12;101672.13;5014251;28;20021;-65
2022/07/14 11:03:21;;;;;;;5.00;2.00;;;;;;;42.64;19.62;101668.91;5014294;28;20022;-65
2022/07/14 11:06:11;;;;;;;3.72;1.38;;;;;;;42.80;19.56;101667.31;5012858;28;20088;-65
2022/07/14 11:08:39;;;;;;;3.00;1.33;;;;;;;42.88;19.54;101657.25;5014154;28;20021;-64
2022/07/14 11:11:08;;;;;;;4.82;1.50;;;;;;;43.02;19.73;101651.50;5029315;28;20032;-64
2022/07/14 11:13:37;;;;;;;9.52;1.50;;;;;;;43.10;19.55;101659.16;5013290;28;20397;-64
2022/07/14 11:16:03;;;;;;;5.25;1.08;;;;;;;43.18;19.32;101664.00;5012881;28;20068;-64
2022/07/14 11:18:43;;;;;;;4.35;1.15;;;;;;;43.24;18.54;101663.53;5012782;28;20483;-64
2022/07/14 11:21:17;;;;;;;6.05;1.50;;;;;;;43.22;19.68;101662.19;5012828;28;20025;-63
2022/07/14 11:23:45;;;;;;;3.28;1.10;;;;;;;43.25;18.92;101667.16;4996499;28;20025;-64
2022/07/14 11:26:38;;;;;;;1.67;1.00;;;;;;;43.26;19.13;101674.47;5012576;28;20480;-63
2022/07/14 11:29:05;;;;;;;1.83;0.90;;;;;;;43.21;19.30;101677.47;5029105;28;20018;-64
2022/07/14 11:31:51;;;;;;;3.10;1.10;;;;;;;43.30;18.46;101676.28;5013768;28;20030;-63